sensor_id;sensor_type;location;lat;lon;timestamp;temperature;humidity
54960;DHT22;40860;51.710;8.736;2022-08-03T00:00:17;20.30;89.70
54960;DHT22;40860;51.710;8.736;2022-08-03T00:04:21;20.20;90.10
54960;DHT22;40860;51.710;8.736;2022-08-03T00:08:35;20.20;90.40
54960;DHT22;40860;51.710;8.736;2022-08-03T00:12:41;20.10;90.70
54960;DHT22;40860;51.710;8.736;2022-08-03T00:16:43;20.00;90.90
54960;DHT22;40860;51.710;8.736;2022-08-03T00:20:48;20.00;91.20
54960;DHT22;40860;51.710;8.736;2022-08-03T00:24:50;19.90;91.50
54960;DHT22;40860;51.710;8.736;2022-08-03T00:28:53;19.90;91.70
54960;DHT22;40860;51.710;8.736;2022-08-03T00:32:56;19.80;91.70
54960;DHT22;40860;51.710;8.736;2022-08-03T00:37:01;19.70;91.90
54960;DHT22;40860;51.710;8.736;2022-08-03T00:41:04;19.70;92.00
54960;DHT22;40860;51.710;8.736;2022-08-03T00:45:07;19.70;92.00
54960;DHT22;40860;51.710;8.736;2022-08-03T00:49:10;19.60;92.00
54960;DHT22;40860;51.710;8.736;2022-08-03T00:53:14;19.60;92.50
54960;DHT22;40860;51.710;8.736;2022-08-03T00:57:19;19.60;92.10
54960;DHT22;40860;51.710;8.736;2022-08-03T01:01:21;19.60;91.70
54960;DHT22;40860;51.710;8.736;2022-08-03T01:05:25;19.60;92.70
54960;DHT22;40860;51.710;8.736;2022-08-03T01:09:34;19.70;92.20
54960;DHT22;40860;51.710;8.736;2022-08-03T01:13:43;19.70;92.30
54960;DHT22;40860;51.710;8.736;2022-08-03T01:18:15;19.60;92.50
54960;DHT22;40860;51.710;8.736;2022-08-03T01:22:36;19.60;92.70
54960;DHT22;40860;51.710;8.736;2022-08-03T01:26:52;19.50;93.20
54960;DHT22;40860;51.710;8.736;2022-08-03T01:31:02;19.40;92.90
54960;DHT22;40860;51.710;8.736;2022-08-03T01:35:10;19.40;92.70
54960;DHT22;40860;51.710;8.736;2022-08-03T01:39:14;19.40;92.70
54960;DHT22;40860;51.710;8.736;2022-08-03T01:43:19;19.40;93.00
54960;DHT22;40860;51.710;8.736;2022-08-03T01:47:46;19.30;92.70
54960;DHT22;40860;51.710;8.736;2022-08-03T01:51:51;19.30;92.60
54960;DHT22;40860;51.710;8.736;2022-08-03T01:56:05;19.30;92.60
54960;DHT22;40860;51.710;8.736;2022-08-03T02:00:09;19.30;92.80
54960;DHT22;40860;51.710;8.736;2022-08-03T02:04:16;19.20;92.60
54960;DHT22;40860;51.710;8.736;2022-08-03T02:08:20;19.20;92.80
54960;DHT22;40860;51.710;8.736;2022-08-03T02:12:30;19.20;93.00
54960;DHT22;40860;51.710;8.736;2022-08-03T02:16:36;19.20;93.40
54960;DHT22;40860;51.710;8.736;2022-08-03T02:20:42;19.10;93.40
54960;DHT22;40860;51.710;8.736;2022-08-03T02:24:45;19.10;93.20
54960;DHT22;40860;51.710;8.736;2022-08-03T02:28:54;19.10;93.40
54960;DHT22;40860;51.710;8.736;2022-08-03T02:32:58;19.10;93.50
54960;DHT22;40860;51.710;8.736;2022-08-03T02:37:04;19.00;93.70
54960;DHT22;40860;51.710;8.736;2022-08-03T02:41:12;19.00;93.90
54960;DHT22;40860;51.710;8.736;2022-08-03T02:45:17;18.90;93.80
54960;DHT22;40860;51.710;8.736;2022-08-03T02:49:22;18.90;93.90
54960;DHT22;40860;51.710;8.736;2022-08-03T02:53:48;18.90;93.60
54960;DHT22;40860;51.710;8.736;2022-08-03T02:57:53;18.80;93.70
54960;DHT22;40860;51.710;8.736;2022-08-03T03:02:02;18.80;93.90
54960;DHT22;40860;51.710;8.736;2022-08-03T03:06:07;18.70;94.00
54960;DHT22;40860;51.710;8.736;2022-08-03T03:10:12;18.70;94.00
54960;DHT22;40860;51.710;8.736;2022-08-03T03:14:15;18.70;94.20
54960;DHT22;40860;51.710;8.736;2022-08-03T03:18:35;18.60;94.50
54960;DHT22;40860;51.710;8.736;2022-08-03T03:22:39;18.60;94.30
54960;DHT22;40860;51.710;8.736;2022-08-03T03:26:47;18.50;94.40
54960;DHT22;40860;51.710;8.736;2022-08-03T03:30:50;18.50;94.50
54960;DHT22;40860;51.710;8.736;2022-08-03T03:34:54;18.40;94.60
54960;DHT22;40860;51.710;8.736;2022-08-03T03:38:59;18.30;94.80
54960;DHT22;40860;51.710;8.736;2022-08-03T03:43:18;18.30;94.90
54960;DHT22;40860;51.710;8.736;2022-08-03T03:47:20;18.20;94.70
54960;DHT22;40860;51.710;8.736;2022-08-03T03:51:33;18.20;94.70
54960;DHT22;40860;51.710;8.736;2022-08-03T03:55:36;18.20;94.70
54960;DHT22;40860;51.710;8.736;2022-08-03T04:00:01;18.10;94.70
54960;DHT22;40860;51.710;8.736;2022-08-03T04:04:05;18.10;94.80
54960;DHT22;40860;51.710;8.736;2022-08-03T04:08:22;18.10;94.90
54960;DHT22;40860;51.710;8.736;2022-08-03T04:12:47;18.10;94.90
54960;DHT22;40860;51.710;8.736;2022-08-03T04:16:56;18.10;95.10
54960;DHT22;40860;51.710;8.736;2022-08-03T04:21:02;18.10;95.00
54960;DHT22;40860;51.710;8.736;2022-08-03T04:25:08;18.10;95.00
54960;DHT22;40860;51.710;8.736;2022-08-03T04:29:12;18.20;94.80
54960;DHT22;40860;51.710;8.736;2022-08-03T04:33:18;18.30;94.60
54960;DHT22;40860;51.710;8.736;2022-08-03T04:37:28;18.30;94.90
54960;DHT22;40860;51.710;8.736;2022-08-03T04:41:34;18.30;94.90
54960;DHT22;40860;51.710;8.736;2022-08-03T04:45:58;18.40;95.00
54960;DHT22;40860;51.710;8.736;2022-08-03T04:50:04;18.40;94.80
54960;DHT22;40860;51.710;8.736;2022-08-03T04:54:15;18.50;94.90
54960;DHT22;40860;51.710;8.736;2022-08-03T04:58:18;18.50;94.80
54960;DHT22;40860;51.710;8.736;2022-08-03T05:02:21;18.50;94.90
54960;DHT22;40860;51.710;8.736;2022-08-03T05:06:26;18.50;94.80
54960;DHT22;40860;51.710;8.736;2022-08-03T05:10:29;18.50;95.00
54960;DHT22;40860;51.710;8.736;2022-08-03T05:14:32;18.60;94.80
54960;DHT22;40860;51.710;8.736;2022-08-03T05:18:36;18.70;94.70
54960;DHT22;40860;51.710;8.736;2022-08-03T05:22:41;18.80;94.30
54960;DHT22;40860;51.710;8.736;2022-08-03T05:26:43;19.00;94.30
54960;DHT22;40860;51.710;8.736;2022-08-03T05:30:46;19.10;93.90
54960;DHT22;40860;51.710;8.736;2022-08-03T05:34:49;19.20;93.80
54960;DHT22;40860;51.710;8.736;2022-08-03T05:38:53;19.60;93.80
54960;DHT22;40860;51.710;8.736;2022-08-03T05:43:02;21.80;91.50
54960;DHT22;40860;51.710;8.736;2022-08-03T05:47:05;22.20;90.60
54960;DHT22;40860;51.710;8.736;2022-08-03T05:51:09;22.70;88.20
54960;DHT22;40860;51.710;8.736;2022-08-03T05:55:14;22.60;86.90
54960;DHT22;40860;51.710;8.736;2022-08-03T05:59:17;22.20;86.20
54960;DHT22;40860;51.710;8.736;2022-08-03T06:03:38;21.90;87.20
54960;DHT22;40860;51.710;8.736;2022-08-03T06:07:41;21.80;87.80
54960;DHT22;40860;51.710;8.736;2022-08-03T06:11:45;22.00;88.50
54960;DHT22;40860;51.710;8.736;2022-08-03T06:15:48;22.20;87.10
54960;DHT22;40860;51.710;8.736;2022-08-03T06:19:51;22.30;87.60
54960;DHT22;40860;51.710;8.736;2022-08-03T06:23:54;22.50;86.40
54960;DHT22;40860;51.710;8.736;2022-08-03T06:27:59;22.70;85.10
54960;DHT22;40860;51.710;8.736;2022-08-03T06:32:01;22.80;83.00
54960;DHT22;40860;51.710;8.736;2022-08-03T06:36:05;22.80;81.30
54960;DHT22;40860;51.710;8.736;2022-08-03T06:40:09;22.90;80.60
54960;DHT22;40860;51.710;8.736;2022-08-03T06:44:16;23.50;80.20
54960;DHT22;40860;51.710;8.736;2022-08-03T06:48:18;24.20;77.30
54960;DHT22;40860;51.710;8.736;2022-08-03T06:52:21;24.10;76.30
54960;DHT22;40860;51.710;8.736;2022-08-03T06:56:39;24.10;76.80
54960;DHT22;40860;51.710;8.736;2022-08-03T07:00:43;24.60;74.40
54960;DHT22;40860;51.710;8.736;2022-08-03T07:04:46;24.70;72.10
54960;DHT22;40860;51.710;8.736;2022-08-03T07:08:49;24.60;72.40
54960;DHT22;40860;51.710;8.736;2022-08-03T07:12:56;24.60;72.90
54960;DHT22;40860;51.710;8.736;2022-08-03T07:17:00;24.70;71.00
54960;DHT22;40860;51.710;8.736;2022-08-03T07:21:12;24.80;70.10
54960;DHT22;40860;51.710;8.736;2022-08-03T07:25:16;25.00;69.70
54960;DHT22;40860;51.710;8.736;2022-08-03T07:29:20;25.20;68.00
54960;DHT22;40860;51.710;8.736;2022-08-03T07:33:24;25.90;68.70
54960;DHT22;40860;51.710;8.736;2022-08-03T07:37:28;27.30;63.20
54960;DHT22;40860;51.710;8.736;2022-08-03T07:41:31;28.00;61.10
54960;DHT22;40860;51.710;8.736;2022-08-03T07:45:34;29.70;58.10
54960;DHT22;40860;51.710;8.736;2022-08-03T07:49:41;31.00;58.70
54960;DHT22;40860;51.710;8.736;2022-08-03T07:53:44;32.50;51.50
54960;DHT22;40860;51.710;8.736;2022-08-03T07:58:02;33.40;47.90
54960;DHT22;40860;51.710;8.736;2022-08-03T08:02:05;33.30;46.90
54960;DHT22;40860;51.710;8.736;2022-08-03T08:06:10;33.40;47.00
54960;DHT22;40860;51.710;8.736;2022-08-03T08:10:14;33.30;47.20
54960;DHT22;40860;51.710;8.736;2022-08-03T08:14:17;33.00;46.60
54960;DHT22;40860;51.710;8.736;2022-08-03T08:18:19;32.70;46.50
54960;DHT22;40860;51.710;8.736;2022-08-03T08:22:24;32.60;46.70
54960;DHT22;40860;51.710;8.736;2022-08-03T08:26:32;32.70;45.70
54960;DHT22;40860;51.710;8.736;2022-08-03T08:30:34;32.60;46.20
54960;DHT22;40860;51.710;8.736;2022-08-03T08:34:37;32.50;46.20
54960;DHT22;40860;51.710;8.736;2022-08-03T08:38:42;32.60;46.40
54960;DHT22;40860;51.710;8.736;2022-08-03T08:42:45;32.50;46.30
54960;DHT22;40860;51.710;8.736;2022-08-03T08:47:01;32.10;45.60
54960;DHT22;40860;51.710;8.736;2022-08-03T08:51:05;31.90;46.00
54960;DHT22;40860;51.710;8.736;2022-08-03T08:55:13;32.40;46.30
54960;DHT22;40860;51.710;8.736;2022-08-03T08:59:17;32.50;45.30
54960;DHT22;40860;51.710;8.736;2022-08-03T09:03:21;32.30;46.00
54960;DHT22;40860;51.710;8.736;2022-08-03T09:07:31;32.50;46.20
54960;DHT22;40860;51.710;8.736;2022-08-03T09:11:36;32.90;46.20
54960;DHT22;40860;51.710;8.736;2022-08-03T09:16:13;32.60;44.30
54960;DHT22;40860;51.710;8.736;2022-08-03T09:20:16;32.20;45.40
54960;DHT22;40860;51.710;8.736;2022-08-03T09:24:21;32.00;44.40
54960;DHT22;40860;51.710;8.736;2022-08-03T09:28:43;31.70;45.90
54960;DHT22;40860;51.710;8.736;2022-08-03T09:33:07;31.70;44.90
54960;DHT22;40860;51.710;8.736;2022-08-03T09:37:12;31.80;45.50
54960;DHT22;40860;51.710;8.736;2022-08-03T09:41:17;32.00;45.30
54960;DHT22;40860;51.710;8.736;2022-08-03T09:45:26;32.30;44.60
54960;DHT22;40860;51.710;8.736;2022-08-03T09:49:29;32.30;44.30
54960;DHT22;40860;51.710;8.736;2022-08-03T09:53:41;32.60;45.00
54960;DHT22;40860;51.710;8.736;2022-08-03T09:58:04;32.60;45.00
54960;DHT22;40860;51.710;8.736;2022-08-03T10:02:19;32.90;44.10
54960;DHT22;40860;51.710;8.736;2022-08-03T10:06:23;32.90;44.60
54960;DHT22;40860;51.710;8.736;2022-08-03T10:10:41;33.00;44.00
54960;DHT22;40860;51.710;8.736;2022-08-03T10:14:45;32.90;44.80
54960;DHT22;40860;51.710;8.736;2022-08-03T10:18:49;32.70;44.40
54960;DHT22;40860;51.710;8.736;2022-08-03T10:22:53;32.80;44.60
54960;DHT22;40860;51.710;8.736;2022-08-03T10:27:00;33.00;44.00
54960;DHT22;40860;51.710;8.736;2022-08-03T10:31:04;32.90;44.00
54960;DHT22;40860;51.710;8.736;2022-08-03T10:35:10;32.70;44.10
54960;DHT22;40860;51.710;8.736;2022-08-03T10:39:23;32.90;44.20
54960;DHT22;40860;51.710;8.736;2022-08-03T10:43:35;33.00;44.60
54960;DHT22;40860;51.710;8.736;2022-08-03T10:47:40;33.20;43.80
54960;DHT22;40860;51.710;8.736;2022-08-03T10:51:46;33.30;43.20
54960;DHT22;40860;51.710;8.736;2022-08-03T10:55:57;33.50;43.50
54960;DHT22;40860;51.710;8.736;2022-08-03T11:00:28;33.20;42.90
54960;DHT22;40860;51.710;8.736;2022-08-03T11:04:45;33.20;43.00
54960;DHT22;40860;51.710;8.736;2022-08-03T11:09:14;33.00;42.60
54960;DHT22;40860;51.710;8.736;2022-08-03T11:13:19;32.90;43.70
54960;DHT22;40860;51.710;8.736;2022-08-03T11:17:23;33.00;43.40
54960;DHT22;40860;51.710;8.736;2022-08-03T11:21:54;33.00;43.10
54960;DHT22;40860;51.710;8.736;2022-08-03T11:26:15;32.90;43.80
54960;DHT22;40860;51.710;8.736;2022-08-03T11:30:23;33.00;43.60
54960;DHT22;40860;51.710;8.736;2022-08-03T11:34:28;33.20;43.30
54960;DHT22;40860;51.710;8.736;2022-08-03T11:38:31;33.50;43.50
54960;DHT22;40860;51.710;8.736;2022-08-03T11:42:39;33.30;42.70
54960;DHT22;40860;51.710;8.736;2022-08-03T11:46:44;33.10;44.00
54960;DHT22;40860;51.710;8.736;2022-08-03T11:50:47;33.00;43.80
54960;DHT22;40860;51.710;8.736;2022-08-03T11:54:51;33.00;44.00
54960;DHT22;40860;51.710;8.736;2022-08-03T11:58:59;33.10;43.00
54960;DHT22;40860;51.710;8.736;2022-08-03T12:03:22;33.10;43.60
54960;DHT22;40860;51.710;8.736;2022-08-03T12:07:26;33.40;44.50
54960;DHT22;40860;51.710;8.736;2022-08-03T12:11:50;33.40;43.40
54960;DHT22;40860;51.710;8.736;2022-08-03T12:16:03;33.20;43.40
54960;DHT22;40860;51.710;8.736;2022-08-03T12:20:08;33.30;43.60
54960;DHT22;40860;51.710;8.736;2022-08-03T12:24:11;33.50;44.50
54960;DHT22;40860;51.710;8.736;2022-08-03T12:28:17;33.60;43.10
54960;DHT22;40860;51.710;8.736;2022-08-03T12:32:42;33.50;43.70
54960;DHT22;40860;51.710;8.736;2022-08-03T12:36:49;33.60;42.90
54960;DHT22;40860;51.710;8.736;2022-08-03T12:41:00;33.70;43.30
54960;DHT22;40860;51.710;8.736;2022-08-03T12:45:20;33.90;43.10
54960;DHT22;40860;51.710;8.736;2022-08-03T12:49:25;33.80;42.40
54960;DHT22;40860;51.710;8.736;2022-08-03T12:53:28;33.50;42.80
54960;DHT22;40860;51.710;8.736;2022-08-03T12:57:40;33.30;43.60
54960;DHT22;40860;51.710;8.736;2022-08-03T13:01:43;33.50;42.80
54960;DHT22;40860;51.710;8.736;2022-08-03T13:05:57;33.40;42.30
54960;DHT22;40860;51.710;8.736;2022-08-03T13:10:00;33.40;42.60
54960;DHT22;40860;51.710;8.736;2022-08-03T13:14:08;33.60;42.90
54960;DHT22;40860;51.710;8.736;2022-08-03T13:18:20;33.60;42.60
54960;DHT22;40860;51.710;8.736;2022-08-03T13:22:26;33.60;42.50
54960;DHT22;40860;51.710;8.736;2022-08-03T13:26:29;33.70;42.70
54960;DHT22;40860;51.710;8.736;2022-08-03T13:30:32;33.70;41.90
54960;DHT22;40860;51.710;8.736;2022-08-03T13:34:36;33.70;42.40
54960;DHT22;40860;51.710;8.736;2022-08-03T13:38:40;33.50;42.20
54960;DHT22;40860;51.710;8.736;2022-08-03T13:42:43;33.30;42.40
54960;DHT22;40860;51.710;8.736;2022-08-03T13:46:49;33.30;43.10
54960;DHT22;40860;51.710;8.736;2022-08-03T13:50:52;33.50;43.90
54960;DHT22;40860;51.710;8.736;2022-08-03T13:54:56;33.80;42.70
54960;DHT22;40860;51.710;8.736;2022-08-03T13:59:00;33.70;42.70
54960;DHT22;40860;51.710;8.736;2022-08-03T14:03:03;33.70;42.10
54960;DHT22;40860;51.710;8.736;2022-08-03T14:07:14;34.20;42.40
54960;DHT22;40860;51.710;8.736;2022-08-03T14:11:19;34.40;42.20
54960;DHT22;40860;51.710;8.736;2022-08-03T14:15:22;34.60;41.90
54960;DHT22;40860;51.710;8.736;2022-08-03T14:19:27;34.80;41.10
54960;DHT22;40860;51.710;8.736;2022-08-03T14:23:30;35.20;40.20
54960;DHT22;40860;51.710;8.736;2022-08-03T14:27:34;35.70;40.60
54960;DHT22;40860;51.710;8.736;2022-08-03T14:31:37;36.00;40.50
54960;DHT22;40860;51.710;8.736;2022-08-03T14:36:00;36.40;40.10
54960;DHT22;40860;51.710;8.736;2022-08-03T14:40:04;36.70;39.70
54960;DHT22;40860;51.710;8.736;2022-08-03T14:44:09;36.70;38.40
54960;DHT22;40860;51.710;8.736;2022-08-03T14:48:12;35.90;39.00
54960;DHT22;40860;51.710;8.736;2022-08-03T14:52:35;35.60;39.60
54960;DHT22;40860;51.710;8.736;2022-08-03T14:56:38;35.60;41.10
54960;DHT22;40860;51.710;8.736;2022-08-03T15:00:42;36.20;40.20
54960;DHT22;40860;51.710;8.736;2022-08-03T15:04:45;36.20;39.00
54960;DHT22;40860;51.710;8.736;2022-08-03T15:08:47;36.10;39.30
54960;DHT22;40860;51.710;8.736;2022-08-03T15:13:11;36.00;40.10
54960;DHT22;40860;51.710;8.736;2022-08-03T15:17:15;36.20;40.40
54960;DHT22;40860;51.710;8.736;2022-08-03T15:21:18;36.40;39.20
54960;DHT22;40860;51.710;8.736;2022-08-03T15:25:41;36.40;38.80
54960;DHT22;40860;51.710;8.736;2022-08-03T15:30:05;36.40;38.80
54960;DHT22;40860;51.710;8.736;2022-08-03T15:34:12;36.40;38.80
54960;DHT22;40860;51.710;8.736;2022-08-03T15:38:15;36.50;39.20
54960;DHT22;40860;51.710;8.736;2022-08-03T15:42:18;36.90;38.80
54960;DHT22;40860;51.710;8.736;2022-08-03T15:46:25;37.10;38.10
54960;DHT22;40860;51.710;8.736;2022-08-03T15:50:31;37.10;39.00
54960;DHT22;40860;51.710;8.736;2022-08-03T15:54:34;36.70;38.20
54960;DHT22;40860;51.710;8.736;2022-08-03T15:58:37;36.40;38.50
54960;DHT22;40860;51.710;8.736;2022-08-03T16:03:00;37.00;39.00
54960;DHT22;40860;51.710;8.736;2022-08-03T16:07:04;37.20;38.30
54960;DHT22;40860;51.710;8.736;2022-08-03T16:11:07;37.30;38.30
54960;DHT22;40860;51.710;8.736;2022-08-03T16:15:11;37.20;37.20
54960;DHT22;40860;51.710;8.736;2022-08-03T16:19:14;36.90;38.60
54960;DHT22;40860;51.710;8.736;2022-08-03T16:23:18;37.00;37.40
54960;DHT22;40860;51.710;8.736;2022-08-03T16:27:22;36.90;37.70
54960;DHT22;40860;51.710;8.736;2022-08-03T16:31:45;36.40;37.70
54960;DHT22;40860;51.710;8.736;2022-08-03T16:35:52;35.90;38.60
54960;DHT22;40860;51.710;8.736;2022-08-03T16:39:56;35.30;39.20
54960;DHT22;40860;51.710;8.736;2022-08-03T16:43:59;35.00;40.40
54960;DHT22;40860;51.710;8.736;2022-08-03T16:48:07;35.20;40.30
54960;DHT22;40860;51.710;8.736;2022-08-03T16:52:10;35.10;39.80
54960;DHT22;40860;51.710;8.736;2022-08-03T16:56:15;34.90;39.80
54960;DHT22;40860;51.710;8.736;2022-08-03T17:00:18;34.40;40.40
54960;DHT22;40860;51.710;8.736;2022-08-03T17:04:35;34.00;40.80
54960;DHT22;40860;51.710;8.736;2022-08-03T17:08:41;33.80;42.40
54960;DHT22;40860;51.710;8.736;2022-08-03T17:12:57;33.60;42.10
54960;DHT22;40860;51.710;8.736;2022-08-03T17:17:02;33.60;41.80
54960;DHT22;40860;51.710;8.736;2022-08-03T17:21:07;33.40;42.50
54960;DHT22;40860;51.710;8.736;2022-08-03T17:25:10;33.10;42.50
54960;DHT22;40860;51.710;8.736;2022-08-03T17:29:38;32.70;43.30
54960;DHT22;40860;51.710;8.736;2022-08-03T17:33:47;32.40;44.20
54960;DHT22;40860;51.710;8.736;2022-08-03T17:37:55;32.10;44.50
54960;DHT22;40860;51.710;8.736;2022-08-03T17:42:06;31.80;44.70
54960;DHT22;40860;51.710;8.736;2022-08-03T17:46:31;31.50;44.80
54960;DHT22;40860;51.710;8.736;2022-08-03T17:50:40;31.40;45.30
54960;DHT22;40860;51.710;8.736;2022-08-03T17:54:50;31.30;45.50
54960;DHT22;40860;51.710;8.736;2022-08-03T17:59:20;31.20;45.70
54960;DHT22;40860;51.710;8.736;2022-08-03T18:03:49;31.00;46.40
54960;DHT22;40860;51.710;8.736;2022-08-03T18:08:21;30.80;47.40
54960;DHT22;40860;51.710;8.736;2022-08-03T18:12:28;30.80;48.00
54960;DHT22;40860;51.710;8.736;2022-08-03T18:16:37;30.60;49.00
54960;DHT22;40860;51.710;8.736;2022-08-03T18:20:42;30.40;47.90
54960;DHT22;40860;51.710;8.736;2022-08-03T18:24:48;30.40;48.30
54960;DHT22;40860;51.710;8.736;2022-08-03T18:28:52;30.30;47.90
54960;DHT22;40860;51.710;8.736;2022-08-03T18:32:55;30.20;48.20
54960;DHT22;40860;51.710;8.736;2022-08-03T18:37:10;30.20;48.60
54960;DHT22;40860;51.710;8.736;2022-08-03T18:41:18;30.00;49.40
54960;DHT22;40860;51.710;8.736;2022-08-03T18:45:36;29.80;50.50
54960;DHT22;40860;51.710;8.736;2022-08-03T18:50:05;29.60;50.70
54960;DHT22;40860;51.710;8.736;2022-08-03T18:54:17;29.40;50.40
54960;DHT22;40860;51.710;8.736;2022-08-03T18:58:44;29.30;50.50
54960;DHT22;40860;51.710;8.736;2022-08-03T19:02:55;29.10;51.60
54960;DHT22;40860;51.710;8.736;2022-08-03T19:07:02;28.90;51.50
54960;DHT22;40860;51.710;8.736;2022-08-03T19:11:14;28.80;52.30
54960;DHT22;40860;51.710;8.736;2022-08-03T19:15:20;28.60;52.50
54960;DHT22;40860;51.710;8.736;2022-08-03T19:19:37;28.40;52.90
54960;DHT22;40860;51.710;8.736;2022-08-03T19:23:46;28.20;53.10
54960;DHT22;40860;51.710;8.736;2022-08-03T19:27:51;28.10;53.50
54960;DHT22;40860;51.710;8.736;2022-08-03T19:31:57;27.90;53.80
54960;DHT22;40860;51.710;8.736;2022-08-03T19:36:02;27.80;54.30
54960;DHT22;40860;51.710;8.736;2022-08-03T19:40:11;27.70;54.90
54960;DHT22;40860;51.710;8.736;2022-08-03T19:44:20;27.60;54.50
54960;DHT22;40860;51.710;8.736;2022-08-03T19:48:27;27.60;54.90
54960;DHT22;40860;51.710;8.736;2022-08-03T19:52:33;27.40;55.50
54960;DHT22;40860;51.710;8.736;2022-08-03T19:56:41;27.30;56.50
54960;DHT22;40860;51.710;8.736;2022-08-03T20:00:49;27.10;56.90
54960;DHT22;40860;51.710;8.736;2022-08-03T20:04:53;26.90;57.30
54960;DHT22;40860;51.710;8.736;2022-08-03T20:08:56;26.80;58.00
54960;DHT22;40860;51.710;8.736;2022-08-03T20:13:00;26.60;58.20
54960;DHT22;40860;51.710;8.736;2022-08-03T20:17:06;26.50;58.50
54960;DHT22;40860;51.710;8.736;2022-08-03T20:21:13;26.30;59.20
54960;DHT22;40860;51.710;8.736;2022-08-03T20:25:23;26.20;60.00
54960;DHT22;40860;51.710;8.736;2022-08-03T20:29:41;26.10;60.80
54960;DHT22;40860;51.710;8.736;2022-08-03T20:34:08;26.00;62.20
54960;DHT22;40860;51.710;8.736;2022-08-03T20:38:18;25.90;64.30
54960;DHT22;40860;51.710;8.736;2022-08-03T20:42:28;25.80;65.70
54960;DHT22;40860;51.710;8.736;2022-08-03T20:46:30;25.70;66.70
54960;DHT22;40860;51.710;8.736;2022-08-03T20:50:55;25.60;67.80
54960;DHT22;40860;51.710;8.736;2022-08-03T20:54:59;25.50;69.20
54960;DHT22;40860;51.710;8.736;2022-08-03T20:59:04;25.40;68.80
54960;DHT22;40860;51.710;8.736;2022-08-03T21:03:15;25.30;68.30
54960;DHT22;40860;51.710;8.736;2022-08-03T21:07:22;25.40;67.30
54960;DHT22;40860;51.710;8.736;2022-08-03T21:11:48;25.40;68.00
54960;DHT22;40860;51.710;8.736;2022-08-03T21:15:52;25.30;69.20
54960;DHT22;40860;51.710;8.736;2022-08-03T21:20:15;25.10;69.70
54960;DHT22;40860;51.710;8.736;2022-08-03T21:24:27;25.00;70.60
54960;DHT22;40860;51.710;8.736;2022-08-03T21:28:32;24.80;70.80
54960;DHT22;40860;51.710;8.736;2022-08-03T21:32:36;24.60;72.00
54960;DHT22;40860;51.710;8.736;2022-08-03T21:36:41;24.50;71.90
54960;DHT22;40860;51.710;8.736;2022-08-03T21:40:47;24.50;71.60
54960;DHT22;40860;51.710;8.736;2022-08-03T21:44:50;24.40;72.30
54960;DHT22;40860;51.710;8.736;2022-08-03T21:48:55;24.40;71.90
54960;DHT22;40860;51.710;8.736;2022-08-03T21:53:22;24.40;72.50
54960;DHT22;40860;51.710;8.736;2022-08-03T21:57:51;24.20;73.60
54960;DHT22;40860;51.710;8.736;2022-08-03T22:01:54;24.00;74.30
54960;DHT22;40860;51.710;8.736;2022-08-03T22:05:59;24.00;74.80
54960;DHT22;40860;51.710;8.736;2022-08-03T22:10:07;23.90;74.70
54960;DHT22;40860;51.710;8.736;2022-08-03T22:14:11;23.90;73.90
54960;DHT22;40860;51.710;8.736;2022-08-03T22:18:15;23.80;75.40
54960;DHT22;40860;51.710;8.736;2022-08-03T22:22:18;23.80;75.40
54960;DHT22;40860;51.710;8.736;2022-08-03T22:26:25;23.70;75.20
54960;DHT22;40860;51.710;8.736;2022-08-03T22:30:38;23.60;75.60
54960;DHT22;40860;51.710;8.736;2022-08-03T22:34:41;23.50;75.70
54960;DHT22;40860;51.710;8.736;2022-08-03T22:38:46;23.40;76.00
54960;DHT22;40860;51.710;8.736;2022-08-03T22:42:49;23.40;76.20
54960;DHT22;40860;51.710;8.736;2022-08-03T22:46:54;23.40;76.80
54960;DHT22;40860;51.710;8.736;2022-08-03T22:50:58;23.40;78.20
54960;DHT22;40860;51.710;8.736;2022-08-03T22:55:03;23.20;78.90
54960;DHT22;40860;51.710;8.736;2022-08-03T22:59:06;23.20;80.30
54960;DHT22;40860;51.710;8.736;2022-08-03T23:03:32;23.10;80.80
54960;DHT22;40860;51.710;8.736;2022-08-03T23:07:57;23.00;81.50
54960;DHT22;40860;51.710;8.736;2022-08-03T23:12:04;22.90;82.50
54960;DHT22;40860;51.710;8.736;2022-08-03T23:16:07;22.80;83.30
54960;DHT22;40860;51.710;8.736;2022-08-03T23:20:12;22.70;83.80
54960;DHT22;40860;51.710;8.736;2022-08-03T23:24:16;22.70;84.20
54960;DHT22;40860;51.710;8.736;2022-08-03T23:28:30;22.60;84.60
54960;DHT22;40860;51.710;8.736;2022-08-03T23:32:34;22.50;84.60
54960;DHT22;40860;51.710;8.736;2022-08-03T23:36:40;22.60;83.90
54960;DHT22;40860;51.710;8.736;2022-08-03T23:40:43;22.70;83.60
54960;DHT22;40860;51.710;8.736;2022-08-03T23:44:53;22.60;84.10
54960;DHT22;40860;51.710;8.736;2022-08-03T23:49:07;22.50;84.70
54960;DHT22;40860;51.710;8.736;2022-08-03T23:53:29;22.40;85.30
54960;DHT22;40860;51.710;8.736;2022-08-03T23:57:51;22.30;85.00
